Time;durP1;ratioP1;P1;durP2;ratioP2;P2;SDS_P1;SDS_P2;PMS_P1;PMS_P2;Temp;Humidity;BMP_temperature;BMP_pressure;BME280_temperature;BME280_humidity;BME280_pressure;Samples;Min_cycle;Max_cycle;Signal;HPM_P1;HPM_P2
2023/04/16 00:00:58;;;;;;;72.47;28.08;;;8.80;99.90;;;;;;5006821;28;20072;-61
2023/04/16 00:03:24;;;;;;;80.53;29.90;;;8.80;99.90;;;;;;4970058;28;20134;-61
2023/04/16 00:05:50;;;;;;;78.78;28.75;;;8.80;99.90;;;;;;5002931;28;20042;-60
2023/04/16 00:08:16;;;;;;;65.78;25.98;;;8.80;99.90;;;;;;4982725;28;20281;-60
2023/04/16 00:10:41;;;;;;;69.60;26.95;;;8.80;99.90;;;;;;5003906;28;20045;-60
2023/04/16 00:13:07;;;;;;;77.03;28.13;;;8.80;99.90;;;;;;4990517;28;20040;-61
2023/04/16 00:15:33;;;;;;;75.05;27.67;;;8.80;99.90;;;;;;5022120;28;20072;-61
2023/04/16 00:18:02;;;;;;;72.28;27.42;;;8.80;99.90;;;;;;5003541;28;20045;-61
2023/04/16 00:20:27;;;;;;;75.28;28.77;;;8.80;99.90;;;;;;5011069;28;20524;-61
2023/04/16 00:22:53;;;;;;;70.05;26.00;;;8.80;99.90;;;;;;4998876;28;20037;-61
2023/04/16 00:25:19;;;;;;;66.00;26.30;;;8.80;99.90;;;;;;5005452;28;20493;-61
2023/04/16 00:27:47;;;;;;;67.88;26.98;;;9.00;99.90;;;;;;5024207;28;20025;-60
2023/04/16 00:30:13;;;;;;;67.47;26.50;;;8.70;99.90;;;;;;5008670;28;20037;-61
2023/04/16 00:32:39;;;;;;;71.70;28.02;;;8.80;99.90;;;;;;5019805;28;20037;-62
2023/04/16 00:35:05;;;;;;;70.40;28.15;;;8.70;99.90;;;;;;5017920;28;20558;-60
2023/04/16 00:37:31;;;;;;;69.72;27.65;;;8.70;99.90;;;;;;5015143;28;20045;-61
2023/04/16 00:39:57;;;;;;;63.58;24.75;;;8.70;99.90;;;;;;5000744;28;20042;-62
2023/04/16 00:42:22;;;;;;;67.05;26.58;;;8.80;99.90;;;;;;5016689;28;20063;-61
2023/04/16 00:44:48;;;;;;;68.10;26.40;;;8.80;99.90;;;;;;5014942;28;20045;-61
2023/04/16 00:47:14;;;;;;;72.80;28.33;;;8.80;99.90;;;;;;5005782;28;20045;-60
2023/04/16 00:49:40;;;;;;;66.43;26.90;;;8.80;99.90;;;;;;5023250;28;20041;-60
2023/04/16 00:52:06;;;;;;;62.42;24.98;;;8.80;99.90;;;;;;5002742;28;20042;-61
2023/04/16 00:54:32;;;;;;;57.25;24.50;;;8.80;99.90;;;;;;4989207;28;20420;-61
2023/04/16 00:56:58;;;;;;;72.65;27.48;;;8.80;99.90;;;;;;5017976;28;20104;-60
2023/04/16 00:59:25;;;;;;;54.15;25.52;;;8.80;99.90;;;;;;5019736;28;20117;-60
2023/04/16 01:01:51;;;;;;;64.40;27.55;;;8.80;99.90;;;;;;5001818;28;20192;-61
2023/04/16 01:04:17;;;;;;;59.65;26.35;;;8.80;99.90;;;;;;5023599;22;20134;-54
2023/04/16 01:06:43;;;;;;;57.58;26.38;;;8.80;99.90;;;;;;5019343;28;20038;-54
2023/04/16 01:09:10;;;;;;;60.60;26.70;;;8.90;99.90;;;;;;5039766;28;20614;-53
2023/04/16 01:11:36;;;;;;;56.70;25.05;;;8.90;99.90;;;;;;5019355;28;20034;-55
2023/04/16 01:14:03;;;;;;;61.95;24.98;;;8.90;99.90;;;;;;5002818;28;20050;-56
2023/04/16 01:16:28;;;;;;;58.35;26.20;;;8.90;99.90;;;;;;5024478;28;20419;-54
2023/04/16 01:18:54;;;;;;;49.95;25.23;;;8.90;99.90;;;;;;5018342;28;20093;-57
2023/04/16 01:21:20;;;;;;;57.22;25.95;;;8.90;99.90;;;;;;5021233;28;20053;-54
2023/04/16 01:23:46;;;;;;;66.28;27.73;;;8.90;99.90;;;;;;5017753;28;20049;-58
2023/04/16 01:26:11;;;;;;;59.53;25.13;;;8.90;99.90;;;;;;5027750;28;20456;-56
2023/04/16 01:28:37;;;;;;;61.47;26.60;;;8.90;99.90;;;;;;5016247;28;20046;-58
2023/04/16 01:31:03;;;;;;;56.63;26.83;;;8.90;99.90;;;;;;5008418;28;20037;-54
2023/04/16 01:33:28;;;;;;;60.15;27.25;;;8.90;99.90;;;;;;5015645;28;20416;-56
2023/04/16 01:35:54;;;;;;;54.20;26.13;;;8.90;99.90;;;;;;5016171;28;20042;-56
2023/04/16 01:38:20;;;;;;;50.67;25.48;;;8.90;99.90;;;;;;5008717;28;20125;-56
2023/04/16 01:40:46;;;;;;;55.72;26.33;;;8.90;99.90;;;;;;5015496;28;20038;-54
2023/04/16 01:43:11;;;;;;;52.70;25.83;;;8.90;99.90;;;;;;5018061;28;20042;-55
2023/04/16 01:45:37;;;;;;;58.90;25.50;;;8.90;99.90;;;;;;5014587;28;20389;-55
2023/04/16 01:48:03;;;;;;;54.55;25.38;;;8.90;99.90;;;;;;5016936;28;20044;-54
2023/04/16 01:50:29;;;;;;;54.10;25.85;;;8.90;99.90;;;;;;5019200;28;20388;-56
2023/04/16 01:52:55;;;;;;;67.22;27.30;;;8.90;99.90;;;;;;5011945;28;20033;-55
2023/04/16 01:55:21;;;;;;;61.25;27.17;;;8.90;99.90;;;;;;5020541;28;20049;-55
2023/04/16 01:57:49;;;;;;;71.07;27.88;;;8.90;99.90;;;;;;5011188;28;20037;-52
2023/04/16 02:00:15;;;;;;;54.60;26.55;;;8.90;99.90;;;;;;5023826;28;20120;-56
2023/04/16 02:02:44;;;;;;;53.53;24.45;;;8.90;99.90;;;;;;5022099;28;20049;-56
2023/04/16 02:05:09;;;;;;;61.92;26.27;;;8.90;99.90;;;;;;5023849;28;20124;-56
2023/04/16 02:07:35;;;;;;;55.78;25.70;;;8.90;99.90;;;;;;5014832;28;20136;-54
2023/04/16 02:10:01;;;;;;;56.63;25.17;;;8.90;99.90;;;;;;5013768;28;20041;-56
2023/04/16 02:12:27;;;;;;;58.00;25.08;;;8.90;99.90;;;;;;5021084;28;20044;-54
2023/04/16 02:14:55;;;;;;;59.30;24.42;;;8.90;99.90;;;;;;5019045;28;20089;-56
2023/04/16 02:17:21;;;;;;;60.88;27.42;;;8.90;99.90;;;;;;5016773;28;20072;-56
2023/04/16 02:19:47;;;;;;;47.47;25.20;;;8.90;99.90;;;;;;5016366;28;20472;-56
2023/04/16 02:22:12;;;;;;;48.53;23.30;;;8.90;99.90;;;;;;4996788;28;20096;-56
2023/04/16 02:24:41;;;;;;;59.92;25.55;;;8.90;99.90;;;;;;5012865;28;20037;-54
2023/04/16 02:27:07;;;;;;;56.78;25.42;;;8.90;99.90;;;;;;5019973;28;20124;-56
2023/04/16 02:29:32;;;;;;;59.35;25.10;;;8.90;99.90;;;;;;5016692;28;20099;-59
2023/04/16 02:31:58;;;;;;;63.05;25.80;;;8.90;99.90;;;;;;5023813;28;20037;-54
2023/04/16 02:34:24;;;;;;;69.72;27.67;;;8.90;99.90;;;;;;5016300;28;20124;-55
2023/04/16 02:36:50;;;;;;;67.43;25.98;;;8.90;99.90;;;;;;5019647;28;20053;-57
2023/04/16 02:39:15;;;;;;;62.17;26.55;;;8.90;99.90;;;;;;5020446;28;20120;-57
2023/04/16 02:41:41;;;;;;;64.38;26.65;;;8.90;99.90;;;;;;5005856;28;20071;-55
2023/04/16 02:44:09;;;;;;;62.05;27.73;;;8.90;99.90;;;;;;5020210;28;20088;-53
2023/04/16 02:46:35;;;;;;;63.42;28.85;;;8.90;99.90;;;;;;5018111;28;20484;-56
2023/04/16 02:49:01;;;;;;;63.47;27.35;;;8.90;99.90;;;;;;4986106;28;20049;-56
2023/04/16 02:51:27;;;;;;;85.65;32.83;;;8.90;99.90;;;;;;5023023;28;20038;-54
2023/04/16 02:53:53;;;;;;;81.88;33.97;;;8.90;99.90;;;;;;5021044;28;20129;-55
2023/04/16 02:56:19;;;;;;;78.45;30.27;;;8.90;99.90;;;;;;5022007;28;20136;-54
2023/04/16 02:58:44;;;;;;;81.75;31.15;;;8.90;99.90;;;;;;5012543;28;20472;-56
2023/04/16 03:01:10;;;;;;;78.63;31.55;;;8.90;99.90;;;;;;5025017;28;20065;-56
2023/04/16 03:03:36;;;;;;;75.65;30.85;;;8.90;99.90;;;;;;5026325;28;20052;-54
2023/04/16 03:06:02;;;;;;;75.93;31.48;;;8.90;99.90;;;;;;5021941;28;20046;-55
2023/04/16 03:08:27;;;;;;;77.22;28.52;;;8.90;99.90;;;;;;5020759;28;20045;-53
2023/04/16 03:10:53;;;;;;;91.82;32.72;;;8.90;99.90;;;;;;5021671;28;20072;-55
2023/04/16 03:13:19;;;;;;;71.28;29.00;;;8.90;99.90;;;;;;5020250;28;20162;-57
2023/04/16 03:15:48;;;;;;;90.43;33.00;;;8.90;99.90;;;;;;5022816;28;20049;-56
2023/04/16 03:18:15;;;;;;;87.30;32.75;;;8.90;99.90;;;;;;5021767;28;20080;-55
2023/04/16 03:20:40;;;;;;;82.07;31.55;;;8.90;99.90;;;;;;5020166;28;20045;-53
2023/04/16 03:23:06;;;;;;;72.70;31.45;;;9.00;99.90;;;;;;5012940;28;20026;-56
2023/04/16 03:25:32;;;;;;;79.82;32.42;;;8.90;99.90;;;;;;4996770;28;20469;-56
2023/04/16 03:27:57;;;;;;;90.35;33.58;;;8.90;99.90;;;;;;5024048;28;20045;-55
2023/04/16 03:30:23;;;;;;;93.68;32.95;;;8.90;99.90;;;;;;5019634;28;20563;-54
2023/04/16 03:32:49;;;;;;;103.20;33.95;;;8.90;99.90;;;;;;5013258;28;20042;-54
2023/04/16 03:35:14;;;;;;;84.10;32.53;;;9.00;99.90;;;;;;5019126;28;20041;-55
2023/04/16 03:37:40;;;;;;;77.18;30.92;;;8.90;99.90;;;;;;5007379;28;20070;-57
2023/04/16 03:40:07;;;;;;;90.15;33.95;;;8.90;99.90;;;;;;5019539;28;20042;-56
2023/04/16 03:42:32;;;;;;;81.00;32.70;;;8.90;99.90;;;;;;5015459;28;20034;-56
2023/04/16 03:45:01;;;;;;;77.93;29.98;;;8.90;99.90;;;;;;5012274;28;20042;-55
2023/04/16 03:47:27;;;;;;;71.85;28.77;;;8.90;99.90;;;;;;5010582;28;20046;-54
2023/04/16 03:49:53;;;;;;;65.32;25.75;;;8.90;99.90;;;;;;5014181;28;20056;-52
2023/04/16 03:52:18;;;;;;;64.43;24.77;;;8.90;99.90;;;;;;4996275;28;20095;-53
2023/04/16 03:54:44;;;;;;;59.17;23.67;;;8.90;99.90;;;;;;5000662;28;20522;-57
2023/04/16 03:57:13;;;;;;;59.50;24.70;;;8.80;99.90;;;;;;5015479;28;20099;-56
2023/04/16 03:59:38;;;;;;;72.57;27.02;;;8.80;99.90;;;;;;5016547;28;20532;-56
2023/04/16 04:02:04;;;;;;;71.20;27.83;;;8.80;99.90;;;;;;5006378;28;20132;-57
2023/04/16 04:04:30;;;;;;;90.53;30.48;;;8.90;99.90;;;;;;4996825;28;20245;-55
2023/04/16 04:06:55;;;;;;;78.53;29.02;;;8.90;99.90;;;;;;4982511;28;20096;-56
2023/04/16 04:09:21;;;;;;;86.45;29.67;;;8.90;99.90;;;;;;5018196;28;20419;-56
2023/04/16 04:11:50;;;;;;;88.55;29.77;;;8.90;99.90;;;;;;5010438;28;20067;-55
2023/04/16 04:14:15;;;;;;;93.43;30.35;;;8.90;99.90;;;;;;5019871;28;20041;-52
2023/04/16 04:16:41;;;;;;;79.50;28.13;;;8.80;99.90;;;;;;5006616;28;20045;-55
2023/04/16 04:19:07;;;;;;;76.32;28.70;;;8.90;99.90;;;;;;5007953;28;20029;-57
2023/04/16 04:21:32;;;;;;;69.75;27.35;;;8.80;99.90;;;;;;5005998;28;20060;-54
2023/04/16 04:23:58;;;;;;;85.05;29.05;;;8.80;99.90;;;;;;5019649;28;20514;-55
2023/04/16 04:26:24;;;;;;;83.68;29.10;;;8.80;99.90;;;;;;5010210;28;20045;-54
2023/04/16 04:28:53;;;;;;;79.32;30.60;;;8.80;99.90;;;;;;5017818;28;20046;-55
2023/04/16 04:31:18;;;;;;;75.40;26.60;;;8.80;99.90;;;;;;4998468;28;20075;-53
2023/04/16 04:33:44;;;;;;;63.97;26.58;;;8.80;99.90;;;;;;5013641;28;20608;-52
2023/04/16 04:36:13;;;;;;;79.03;29.38;;;8.80;99.90;;;;;;5017167;28;20095;-54
2023/04/16 04:38:38;;;;;;;76.18;27.27;;;8.80;99.90;;;;;;5009122;28;20037;-52
2023/04/16 04:41:04;;;;;;;87.07;29.73;;;8.80;99.90;;;;;;5027798;28;20071;-54
2023/04/16 04:43:30;;;;;;;79.45;26.60;;;8.90;99.90;;;;;;5010606;28;20537;-55
2023/04/16 04:45:55;;;;;;;82.85;29.13;;;8.80;99.90;;;;;;5022373;28;20098;-56
2023/04/16 04:48:25;;;;;;;75.60;25.65;;;8.80;99.90;;;;;;5016930;28;20077;-52
2023/04/16 04:50:51;;;;;;;79.55;25.40;;;8.80;99.90;;;;;;5021106;28;20041;-57
2023/04/16 04:53:17;;;;;;;81.05;27.63;;;8.80;99.90;;;;;;5011423;28;20041;-55
2023/04/16 04:55:42;;;;;;;78.70;25.80;;;8.80;99.90;;;;;;5020412;28;20060;-54
2023/04/16 04:58:08;;;;;;;73.40;25.20;;;8.80;99.90;;;;;;5014057;28;20041;-55
2023/04/16 05:00:37;;;;;;;90.50;28.50;;;8.80;99.90;;;;;;5021596;28;20042;-56
2023/04/16 05:03:05;;;;;;;72.22;27.27;;;8.80;99.90;;;;;;5007172;28;20038;-56
2023/04/16 05:05:31;;;;;;;81.32;28.55;;;8.80;99.90;;;;;;5018689;28;20049;-55
2023/04/16 05:07:56;;;;;;;86.97;29.73;;;8.80;99.90;;;;;;5014480;28;20073;-56
2023/04/16 05:10:22;;;;;;;86.90;28.67;;;8.80;99.90;;;;;;5017569;28;20046;-56
2023/04/16 05:12:48;;;;;;;79.72;27.50;;;8.80;99.90;;;;;;4996065;28;20048;-56
2023/04/16 05:15:15;;;;;;;78.40;26.85;;;8.80;99.90;;;;;;5012014;28;20477;-56
2023/04/16 05:17:44;;;;;;;77.50;26.63;;;8.90;99.90;;;;;;5001929;28;20038;-55
2023/04/16 05:20:10;;;;;;;97.00;31.70;;;8.90;99.90;;;;;;5022898;28;20093;-54
2023/04/16 05:22:36;;;;;;;89.82;30.10;;;8.90;99.90;;;;;;5026564;28;20568;-55
2023/04/16 05:25:02;;;;;;;90.72;31.10;;;8.90;99.90;;;;;;5021821;28;20041;-55
2023/04/16 05:27:28;;;;;;;86.95;31.15;;;8.90;99.90;;;;;;5023455;28;20042;-55
2023/04/16 05:29:54;;;;;;;82.10;29.95;;;8.90;99.90;;;;;;5011397;28;20382;-55
2023/04/16 05:32:19;;;;;;;79.38;29.48;;;8.90;99.90;;;;;;5012231;28;20051;-55
2023/04/16 05:34:45;;;;;;;88.15;29.25;;;8.90;99.90;;;;;;4987400;28;20041;-56
2023/04/16 05:37:11;;;;;;;81.10;26.23;;;8.90;99.90;;;;;;5019810;28;20045;-56
2023/04/16 05:39:36;;;;;;;91.85;29.10;;;8.90;99.90;;;;;;5014012;28;20045;-54
2023/04/16 05:42:05;;;;;;;85.03;28.17;;;8.90;99.90;;;;;;5021211;28;20037;-55
2023/04/16 05:44:30;;;;;;;74.80;26.80;;;8.90;99.90;;;;;;5013313;28;20042;-53
2023/04/16 05:46:56;;;;;;;68.70;24.98;;;8.90;99.90;;;;;;5016751;28;20064;-54
2023/04/16 05:49:22;;;;;;;69.80;25.17;;;8.90;99.90;;;;;;5022928;28;20136;-55
2023/04/16 05:51:47;;;;;;;70.70;24.13;;;8.90;99.90;;;;;;5020449;28;20484;-56
2023/04/16 05:54:13;;;;;;;71.20;23.90;;;9.00;99.90;;;;;;5009397;28;20080;-56
2023/04/16 05:56:42;;;;;;;72.78;25.48;;;9.10;99.90;;;;;;5012035;28;20060;-54
2023/04/16 05:59:08;;;;;;;75.60;23.85;;;9.00;99.90;;;;;;5023371;28;20036;-54
2023/04/16 06:01:33;;;;;;;68.55;25.08;;;9.10;99.90;;;;;;5018380;28;20366;-53
2023/04/16 06:04:02;;;;;;;80.60;25.52;;;9.10;99.90;;;;;;5014120;28;20492;-54
2023/04/16 06:06:28;;;;;;;64.97;25.35;;;9.10;99.90;;;;;;5025419;28;20648;-54
2023/04/16 06:08:53;;;;;;;81.43;27.58;;;9.10;99.90;;;;;;5023940;28;20041;-53
2023/04/16 06:11:19;;;;;;;81.80;24.38;;;9.10;99.90;;;;;;5009433;28;20045;-55
2023/04/16 06:13:45;;;;;;;72.60;26.58;;;9.10;99.90;;;;;;5029358;28;20447;-57
2023/04/16 06:16:11;;;;;;;71.75;26.05;;;9.10;99.90;;;;;;5005328;28;20037;-55
2023/04/16 06:18:36;;;;;;;77.22;24.88;;;9.10;99.90;;;;;;5022694;28;20097;-56
2023/04/16 06:21:02;;;;;;;72.60;22.98;;;9.10;99.90;;;;;;5000634;28;20049;-56
2023/04/16 06:23:28;;;;;;;71.10;24.17;;;9.10;99.90;;;;;;5003232;28;20045;-55
2023/04/16 06:25:54;;;;;;;64.10;22.63;;;9.20;99.90;;;;;;5025111;28;21069;-56
2023/04/16 06:28:20;;;;;;;62.15;22.23;;;9.20;99.90;;;;;;5020880;28;20057;-55
2023/04/16 06:30:46;;;;;;;59.60;23.50;;;9.20;99.90;;;;;;5012777;28;20076;-55
2023/04/16 06:33:18;;;;;;;58.13;21.83;;;9.20;99.90;;;;;;5018241;28;20688;-56
2023/04/16 06:35:44;;;;;;;57.17;21.17;;;9.20;99.90;;;;;;5024807;28;20042;-56
2023/04/16 06:38:09;;;;;;;60.80;23.50;;;9.20;99.90;;;;;;5023499;28;20084;-56
2023/04/16 06:40:36;;;;;;;63.50;20.83;;;9.20;99.90;;;;;;5022503;28;20077;-55
2023/04/16 06:43:02;;;;;;;54.30;21.25;;;9.20;99.90;;;;;;5017110;28;20053;-56
2023/04/16 06:45:28;;;;;;;61.45;21.92;;;9.20;99.90;;;;;;5022677;28;20546;-55
2023/04/16 06:47:53;;;;;;;57.15;20.92;;;9.30;99.90;;;;;;5018617;28;20305;-58
2023/04/16 06:50:20;;;;;;;59.45;21.65;;;9.30;99.90;;;;;;5015120;28;20519;-57
2023/04/16 06:52:45;;;;;;;68.35;22.50;;;9.40;99.90;;;;;;5014075;28;20030;-55
2023/04/16 06:55:11;;;;;;;62.40;21.95;;;9.40;99.90;;;;;;5039627;28;20038;-55
2023/04/16 06:57:37;;;;;;;59.88;22.77;;;9.40;99.90;;;;;;4993997;28;20046;-54
2023/04/16 07:00:06;;;;;;;61.35;20.98;;;9.40;99.90;;;;;;5024745;28;20077;-59
2023/04/16 07:02:32;;;;;;;60.83;21.48;;;9.40;99.90;;;;;;5014709;28;20056;-56
2023/04/16 07:04:58;;;;;;;58.80;20.52;;;9.30;99.90;;;;;;5022173;28;20504;-56
2023/04/16 07:07:24;;;;;;;54.13;19.55;;;9.40;99.90;;;;;;5016408;28;20053;-53
2023/04/16 07:09:49;;;;;;;54.92;20.77;;;9.40;99.90;;;;;;5037264;28;20048;-55
2023/04/16 07:12:15;;;;;;;66.53;20.38;;;9.50;99.90;;;;;;5014881;28;20045;-55
2023/04/16 07:14:41;;;;;;;57.65;19.75;;;9.50;99.90;;;;;;5022455;28;20060;-60
2023/04/16 07:17:06;;;;;;;60.38;20.85;;;9.50;99.90;;;;;;5018113;28;20476;-56
2023/04/16 07:19:32;;;;;;;69.32;21.83;;;9.60;99.90;;;;;;5014843;28;20095;-54
2023/04/16 07:22:01;;;;;;;61.30;19.80;;;9.60;99.90;;;;;;5010370;28;20045;-56
2023/04/16 07:24:31;;;;;;;52.97;19.08;;;9.60;99.90;;;;;;5035562;28;20046;-56
2023/04/16 07:26:56;;;;;;;44.72;19.25;;;9.60;99.90;;;;;;5010641;28;20779;-57
2023/04/16 07:29:22;;;;;;;44.22;19.38;;;9.60;99.90;;;;;;5006047;28;20045;-55
2023/04/16 07:31:50;;;;;;;46.75;19.38;;;9.50;99.90;;;;;;5007146;28;20038;-53
2023/04/16 07:34:16;;;;;;;43.55;20.27;;;9.60;99.90;;;;;;5021959;28;20041;-54
2023/04/16 07:36:42;;;;;;;47.00;20.55;;;9.70;99.90;;;;;;5008154;28;20188;-55
2023/04/16 07:39:09;;;;;;;49.70;19.80;;;9.70;99.90;;;;;;5030048;28;20068;-56
2023/04/16 07:41:35;;;;;;;51.92;21.77;;;9.70;99.90;;;;;;5006933;28;20030;-56
2023/04/16 07:44:01;;;;;;;51.78;19.83;;;9.80;99.90;;;;;;5015892;28;20417;-54
2023/04/16 07:46:26;;;;;;;50.70;19.42;;;9.80;99.90;;;;;;5018643;28;20127;-57
2023/04/16 07:48:52;;;;;;;52.80;18.70;;;9.70;99.90;;;;;;5022219;28;20089;-54
2023/04/16 07:51:18;;;;;;;47.15;19.75;;;9.70;99.90;;;;;;5024856;28;20037;-56
2023/04/16 07:53:44;;;;;;;47.80;17.38;;;9.70;99.90;;;;;;5018213;28;20049;-55
2023/04/16 07:56:09;;;;;;;45.05;19.17;;;9.80;99.90;;;;;;5028583;28;20530;-56
2023/04/16 07:58:38;;;;;;;45.45;19.65;;;9.80;99.90;;;;;;5000695;28;20133;-59
2023/04/16 08:01:04;;;;;;;39.33;16.63;;;9.80;99.90;;;;;;5019280;28;20664;-58
2023/04/16 08:03:29;;;;;;;54.30;18.45;;;9.80;99.90;;;;;;4996604;28;20041;-58
2023/04/16 08:05:58;;;;;;;47.42;19.48;;;9.80;99.90;;;;;;5014281;28;20048;-55
2023/04/16 08:08:23;;;;;;;51.00;18.83;;;9.90;99.90;;;;;;5014821;28;20051;-58
2023/04/16 08:10:54;;;;;;;47.95;20.25;;;9.90;99.90;;;;;;5004293;28;20041;-58
2023/04/16 08:13:23;;;;;;;51.25;18.58;;;9.90;99.90;;;;;;5020468;28;20139;-59
2023/04/16 08:15:49;;;;;;;60.25;20.27;;;9.90;99.90;;;;;;5014770;28;20587;-57
2023/04/16 08:18:14;;;;;;;56.53;21.42;;;10.00;99.90;;;;;;5016367;28;20053;-57
2023/04/16 08:20:41;;;;;;;57.67;21.77;;;9.90;99.90;;;;;;5025131;28;20065;-56
2023/04/16 08:23:07;;;;;;;50.80;19.65;;;10.00;99.90;;;;;;5024541;28;20046;-57
2023/04/16 08:25:32;;;;;;;49.83;18.83;;;10.00;99.90;;;;;;5000869;28;20044;-59
2023/04/16 08:27:58;;;;;;;43.30;18.73;;;10.00;99.90;;;;;;5022738;28;20041;-55
2023/04/16 08:30:24;;;;;;;42.67;17.17;;;10.00;99.90;;;;;;5011206;28;20073;-58
2023/04/16 08:32:50;;;;;;;43.53;18.27;;;10.10;99.90;;;;;;5018085;28;20048;-57
2023/04/16 08:35:16;;;;;;;51.40;19.38;;;10.10;99.90;;;;;;5022518;28;20064;-57
2023/04/16 08:37:41;;;;;;;45.42;17.58;;;10.10;99.90;;;;;;5017751;28;20053;-55
2023/04/16 08:40:08;;;;;;;40.10;17.65;;;10.10;99.90;;;;;;5027451;28;20034;-56
2023/04/16 08:42:40;;;;;;;42.72;17.58;;;10.10;99.90;;;;;;5010111;28;20057;-56
2023/04/16 08:45:15;;;;;;;50.17;19.50;;;10.10;99.90;;;;;;5014599;28;20037;-56
2023/04/16 08:47:49;;;;;;;53.22;19.85;;;10.20;99.90;;;;;;5015323;28;20049;-58
2023/04/16 08:50:16;;;;;;;45.50;17.85;;;10.20;99.90;;;;;;5008181;28;20145;-57
2023/04/16 08:52:50;;;;;;;40.53;18.58;;;10.30;99.90;;;;;;5011323;28;20046;-57
2023/04/16 08:55:22;;;;;;;53.10;19.90;;;10.30;99.90;;;;;;5023583;28;20049;-59
2023/04/16 08:57:57;;;;;;;49.88;19.88;;;10.40;99.90;;;;;;4995475;28;20049;-58
2023/04/16 09:00:23;;;;;;;46.47;18.65;;;10.40;99.90;;;;;;5013364;28;20049;-59
2023/04/16 09:02:52;;;;;;;42.58;18.10;;;10.50;99.90;;;;;;5002815;28;20489;-58
2023/04/16 09:05:24;;;;;;;42.25;18.00;;;10.50;99.90;;;;;;4980032;28;1129736;-58
2023/04/16 09:07:51;;;;;;;44.13;19.55;;;10.50;99.90;;;;;;5010107;28;20128;-57
2023/04/16 09:10:18;;;;;;;39.38;18.45;;;10.60;99.90;;;;;;5012317;28;20037;-54
2023/04/16 09:12:45;;;;;;;43.35;19.42;;;10.60;99.90;;;;;;5017623;28;20038;-56
2023/04/16 09:15:11;;;;;;;45.47;19.05;;;10.60;99.90;;;;;;5006690;28;20048;-58
2023/04/16 09:17:38;;;;;;;44.53;19.80;;;10.70;99.90;;;;;;5015848;28;20044;-57
2023/04/16 09:20:11;;;;;;;44.97;20.33;;;10.70;99.90;;;;;;5018235;28;20516;-54
2023/04/16 09:22:39;;;;;;;44.10;21.10;;;10.60;99.90;;;;;;5024273;28;20119;-56
2023/04/16 09:25:05;;;;;;;44.63;18.85;;;10.60;99.90;;;;;;5009692;28;20111;-55
2023/04/16 09:27:31;;;;;;;52.05;19.98;;;10.60;99.90;;;;;;5011979;28;20412;-58
2023/04/16 09:29:57;;;;;;;45.50;19.95;;;10.60;99.90;;;;;;5004482;28;20163;-55
2023/04/16 09:32:30;;;;;;;46.22;22.52;;;10.60;99.90;;;;;;5010179;28;20056;-55
2023/04/16 09:34:58;;;;;;;51.13;22.80;;;10.60;99.90;;;;;;5021165;28;20037;-55
2023/04/16 09:37:25;;;;;;;39.17;20.23;;;10.70;99.90;;;;;;5000051;28;20041;-55
2023/04/16 09:39:56;;;;;;;40.50;19.05;;;10.70;99.90;;;;;;5016845;28;20120;-58
2023/04/16 09:42:28;;;;;;;48.33;21.40;;;10.70;99.90;;;;;;5017362;28;20106;-58
2023/04/16 09:44:54;;;;;;;50.50;21.58;;;10.70;99.90;;;;;;5020195;28;20049;-57
2023/04/16 09:47:24;;;;;;;44.88;19.95;;;10.70;99.90;;;;;;5022632;28;20106;-58
2023/04/16 09:49:51;;;;;;;48.15;19.90;;;10.70;99.90;;;;;;5017525;28;20049;-57
2023/04/16 09:52:21;;;;;;;47.88;21.88;;;11.00;99.90;;;;;;4974013;28;20104;-59
2023/04/16 09:54:51;;;;;;;42.88;19.55;;;10.80;99.90;;;;;;5024495;28;20281;-58
2023/04/16 09:57:24;;;;;;;48.58;20.95;;;10.90;99.90;;;;;;5021871;28;20046;-56
2023/04/16 09:59:56;;;;;;;54.30;21.25;;;10.80;99.90;;;;;;5014826;28;20148;-54
2023/04/16 10:02:29;;;;;;;40.67;19.75;;;10.80;99.90;;;;;;4985827;28;20042;-59
2023/04/16 10:05:01;;;;;;;46.92;21.40;;;10.90;99.90;;;;;;4998827;28;20103;-57
2023/04/16 10:07:33;;;;;;;42.53;19.88;;;10.90;99.90;;;;;;5023475;28;20045;-55
2023/04/16 10:09:59;;;;;;;49.15;21.08;;;11.00;99.90;;;;;;5018426;28;20081;-56
2023/04/16 10:12:28;;;;;;;44.65;20.35;;;11.00;99.90;;;;;;5027808;28;20145;-56
2023/04/16 10:14:54;;;;;;;41.03;18.40;;;11.10;99.90;;;;;;4993339;28;20133;-60
2023/04/16 10:17:23;;;;;;;44.67;20.48;;;11.10;99.90;;;;;;5021990;28;20128;-56
2023/04/16 10:19:50;;;;;;;54.83;21.27;;;11.20;99.90;;;;;;5023123;28;20176;-59
2023/04/16 10:22:15;;;;;;;43.38;19.40;;;11.20;99.90;;;;;;5026786;28;20056;-58
2023/04/16 10:24:42;;;;;;;42.70;18.52;;;11.20;99.90;;;;;;5022635;28;20396;-59
2023/04/16 10:27:08;;;;;;;40.70;18.92;;;11.10;99.90;;;;;;5020983;28;20052;-59
2023/04/16 10:29:34;;;;;;;36.80;18.13;;;11.20;99.90;;;;;;5015103;28;20049;-58
2023/04/16 10:32:01;;;;;;;37.55;18.75;;;11.20;99.90;;;;;;5018441;28;20061;-56
2023/04/16 10:34:27;;;;;;;39.58;17.98;;;11.20;99.90;;;;;;4995337;28;20041;-57
2023/04/16 10:36:54;;;;;;;42.97;18.35;;;11.30;99.90;;;;;;5019347;28;20088;-55
2023/04/16 10:39:23;;;;;;;47.45;20.08;;;11.20;99.90;;;;;;5011374;28;20052;-58
2023/04/16 10:42:10;;;;;;;44.53;20.05;;;11.20;99.90;;;;;;5017876;28;20081;-57
2023/04/16 10:44:36;;;;;;;37.63;18.75;;;11.10;99.90;;;;;;5015179;28;20073;-58
2023/04/16 10:47:08;;;;;;;36.13;18.83;;;11.20;99.90;;;;;;4999585;28;20037;-56
2023/04/16 10:49:34;;;;;;;40.83;19.23;;;11.30;99.90;;;;;;4999138;28;20041;-56
2023/04/16 10:52:15;;;;;;;40.42;18.80;;;11.40;99.90;;;;;;5004270;28;20038;-57
2023/04/16 10:54:42;;;;;;;41.78;19.33;;;11.40;99.90;;;;;;5030375;28;20049;-56
2023/04/16 10:57:19;;;;;;;39.28;18.45;;;11.40;99.90;;;;;;5003200;28;20853;-57
2023/04/16 10:59:47;;;;;;;43.45;19.17;;;11.50;99.90;;;;;;5025112;28;20045;-56
2023/04/16 11:02:17;;;;;;;38.10;17.90;;;11.50;99.90;;;;;;5006661;28;20649;-59
2023/04/16 11:04:44;;;;;;;50.97;20.50;;;11.40;99.90;;;;;;5029037;28;20053;-57
2023/04/16 11:07:13;;;;;;;40.35;17.73;;;11.30;99.90;;;;;;5006048;28;20044;-57
2023/04/16 11:09:46;;;;;;;41.28;18.63;;;11.30;99.90;;;;;;5031422;28;20045;-54
2023/04/16 11:12:19;;;;;;;40.08;18.27;;;11.40;99.90;;;;;;5014900;28;20041;-54
2023/04/16 11:14:50;;;;;;;36.50;17.80;;;11.40;99.90;;;;;;5012811;28;20046;-57
2023/04/16 11:17:17;;;;;;;35.55;17.65;;;11.40;99.90;;;;;;5020962;28;20038;-57
2023/04/16 11:19:43;;;;;;;40.92;17.92;;;11.20;99.90;;;;;;5025335;28;20045;-55
2023/04/16 11:22:12;;;;;;;31.85;18.38;;;11.20;99.90;;;;;;5023484;28;20150;-55
2023/04/16 11:24:39;;;;;;;32.53;17.63;;;11.20;99.90;;;;;;5002674;28;20136;-59
2023/04/16 11:27:06;;;;;;;35.20;18.58;;;11.10;99.90;;;;;;5025550;28;20372;-58
2023/04/16 11:29:31;;;;;;;41.97;20.48;;;11.10;99.90;;;;;;5008184;28;20046;-54
2023/04/16 11:31:57;;;;;;;39.72;19.73;;;11.10;99.90;;;;;;5018619;28;20046;-57
2023/04/16 11:34:23;;;;;;;36.60;19.10;;;11.20;99.90;;;;;;5023131;28;20038;-58
2023/04/16 11:36:50;;;;;;;36.13;18.77;;;11.20;99.90;;;;;;5019297;28;20041;-55
2023/04/16 11:39:17;;;;;;;33.40;18.27;;;11.20;99.90;;;;;;5022714;28;20037;-59
2023/04/16 11:41:47;;;;;;;31.70;18.67;;;11.20;99.90;;;;;;5035706;28;20046;-57
2023/04/16 11:44:17;;;;;;;46.42;20.30;;;11.20;99.90;;;;;;5019799;28;20038;-58
2023/04/16 11:46:43;;;;;;;38.33;19.40;;;11.20;99.90;;;;;;5022173;28;20052;-57
2023/04/16 11:49:08;;;;;;;30.90;17.90;;;11.20;99.90;;;;;;5026393;28;20704;-56
2023/04/16 11:51:46;;;;;;;28.52;16.67;;;11.20;99.90;;;;;;5030675;28;20042;-57
2023/04/16 11:54:33;;;;;;;38.53;18.05;;;11.20;99.90;;;;;;5022361;28;20056;-57
2023/04/16 11:56:59;;;;;;;34.63;17.02;;;11.30;99.90;;;;;;5023875;28;20056;-58
2023/04/16 11:59:25;;;;;;;32.80;17.52;;;11.40;99.90;;;;;;5019094;28;20033;-58
2023/04/16 12:01:56;;;;;;;31.33;17.23;;;11.50;99.90;;;;;;5017726;28;20064;-60
2023/04/16 12:04:24;;;;;;;25.23;15.88;;;11.60;99.90;;;;;;5015526;28;20153;-56
2023/04/16 12:07:13;;;;;;;29.60;17.85;;;11.70;99.90;;;;;;5023704;28;20044;-57
2023/04/16 12:09:41;;;;;;;33.53;17.55;;;11.80;99.90;;;;;;5021276;28;20061;-55
2023/04/16 12:12:30;;;;;;;31.55;17.60;;;11.90;99.90;;;;;;5024351;28;20070;-55
2023/04/16 12:14:58;;;;;;;28.60;17.67;;;12.20;99.90;;;;;;5018754;28;20500;-57
2023/04/16 12:17:24;;;;;;;32.33;18.00;;;12.30;99.90;;;;;;5027931;28;20041;-55
2023/04/16 12:19:54;;;;;;;35.47;18.02;;;12.30;99.90;;;;;;5026442;28;20132;-60
2023/04/16 12:22:48;;;;;;;34.60;18.00;;;12.40;99.90;;;;;;5018957;28;20053;-59
2023/04/16 12:25:23;;;;;;;35.38;17.77;;;12.50;99.90;;;;;;5010687;28;20085;-60
2023/04/16 12:27:51;;;;;;;30.38;16.95;;;12.60;99.90;;;;;;5013708;28;20056;-61
2023/04/16 12:30:22;;;;;;;33.92;18.50;;;12.60;99.90;;;;;;5017909;28;20060;-60
2023/04/16 12:32:50;;;;;;;36.92;19.08;;;12.60;99.90;;;;;;4996012;28;20069;-56